sensor_id;sensor_type;location;lat;lon;timestamp;P1;durP1;ratioP1;P2;durP2;ratioP2
13753;SDS011;6948;51.216;6.778;2023-06-14T00:01:57;8.65;;;4.97;;
13753;SDS011;6948;51.216;6.778;2023-06-14T00:04:23;8.07;;;5.10;;
13753;SDS011;6948;51.216;6.778;2023-06-14T00:06:50;7.60;;;4.95;;
13753;SDS011;6948;51.216;6.778;2023-06-14T00:09:16;5.22;;;4.72;;
13753;SDS011;6948;51.216;6.778;2023-06-14T00:11:43;8.67;;;5.33;;
13753;SDS011;6948;51.216;6.778;2023-06-14T00:14:09;7.90;;;5.47;;
13753;SDS011;6948;51.216;6.778;2023-06-14T00:16:35;7.10;;;5.30;;
13753;SDS011;6948;51.216;6.778;2023-06-14T00:19:02;5.72;;;5.13;;
13753;SDS011;6948;51.216;6.778;2023-06-14T00:21:28;6.13;;;4.83;;
13753;SDS011;6948;51.216;6.778;2023-06-14T00:23:55;6.73;;;5.10;;
13753;SDS011;6948;51.216;6.778;2023-06-14T00:26:21;6.47;;;5.00;;
13753;SDS011;6948;51.216;6.778;2023-06-14T00:28:47;6.90;;;5.10;;
13753;SDS011;6948;51.216;6.778;2023-06-14T00:31:13;7.03;;;4.90;;
13753;SDS011;6948;51.216;6.778;2023-06-14T00:33:39;6.30;;;5.20;;
13753;SDS011;6948;51.216;6.778;2023-06-14T00:36:05;6.27;;;5.50;;
13753;SDS011;6948;51.216;6.778;2023-06-14T00:38:32;8.03;;;5.20;;
13753;SDS011;6948;51.216;6.778;2023-06-14T00:40:58;5.73;;;4.80;;
13753;SDS011;6948;51.216;6.778;2023-06-14T00:43:24;7.23;;;5.00;;
13753;SDS011;6948;51.216;6.778;2023-06-14T00:45:50;6.27;;;4.90;;
13753;SDS011;6948;51.216;6.778;2023-06-14T00:48:16;9.03;;;5.10;;
13753;SDS011;6948;51.216;6.778;2023-06-14T00:50:43;6.90;;;5.40;;
13753;SDS011;6948;51.216;6.778;2023-06-14T00:53:11;7.23;;;5.57;;
13753;SDS011;6948;51.216;6.778;2023-06-14T00:55:37;6.23;;;4.90;;
13753;SDS011;6948;51.216;6.778;2023-06-14T00:58:03;6.43;;;4.90;;
13753;SDS011;6948;51.216;6.778;2023-06-14T01:00:29;6.67;;;4.90;;
13753;SDS011;6948;51.216;6.778;2023-06-14T01:02:55;7.20;;;4.90;;
13753;SDS011;6948;51.216;6.778;2023-06-14T01:05:22;6.70;;;5.27;;
13753;SDS011;6948;51.216;6.778;2023-06-14T01:07:55;9.87;;;7.30;;
13753;SDS011;6948;51.216;6.778;2023-06-14T01:10:31;10.57;;;5.50;;
13753;SDS011;6948;51.216;6.778;2023-06-14T01:15:35;6.20;;;5.13;;
13753;SDS011;6948;51.216;6.778;2023-06-14T01:18:03;8.50;;;5.37;;
13753;SDS011;6948;51.216;6.778;2023-06-14T01:20:31;9.07;;;5.43;;
13753;SDS011;6948;51.216;6.778;2023-06-14T01:22:57;6.93;;;5.17;;
13753;SDS011;6948;51.216;6.778;2023-06-14T01:25:23;7.13;;;5.20;;
13753;SDS011;6948;51.216;6.778;2023-06-14T01:27:51;6.53;;;5.27;;
13753;SDS011;6948;51.216;6.778;2023-06-14T01:30:17;10.60;;;4.93;;
13753;SDS011;6948;51.216;6.778;2023-06-14T01:32:44;6.07;;;5.47;;
13753;SDS011;6948;51.216;6.778;2023-06-14T01:35:11;5.30;;;4.80;;
13753;SDS011;6948;51.216;6.778;2023-06-14T01:37:37;8.23;;;5.00;;
13753;SDS011;6948;51.216;6.778;2023-06-14T01:40:03;7.37;;;4.87;;
13753;SDS011;6948;51.216;6.778;2023-06-14T01:42:32;9.27;;;5.20;;
13753;SDS011;6948;51.216;6.778;2023-06-14T01:44:59;6.50;;;5.13;;
13753;SDS011;6948;51.216;6.778;2023-06-14T01:47:26;5.63;;;5.00;;
13753;SDS011;6948;51.216;6.778;2023-06-14T01:49:52;7.23;;;5.00;;
13753;SDS011;6948;51.216;6.778;2023-06-14T01:52:18;7.30;;;5.37;;
13753;SDS011;6948;51.216;6.778;2023-06-14T01:54:44;8.10;;;5.23;;
13753;SDS011;6948;51.216;6.778;2023-06-14T01:57:12;6.17;;;5.00;;
13753;SDS011;6948;51.216;6.778;2023-06-14T01:59:38;5.83;;;5.13;;
13753;SDS011;6948;51.216;6.778;2023-06-14T02:02:04;8.50;;;5.50;;
13753;SDS011;6948;51.216;6.778;2023-06-14T02:04:30;5.77;;;4.97;;
13753;SDS011;6948;51.216;6.778;2023-06-14T02:06:56;9.30;;;5.47;;
13753;SDS011;6948;51.216;6.778;2023-06-14T02:09:22;7.07;;;5.07;;
13753;SDS011;6948;51.216;6.778;2023-06-14T02:11:48;6.10;;;5.50;;
13753;SDS011;6948;51.216;6.778;2023-06-14T02:14:14;8.63;;;5.20;;
13753;SDS011;6948;51.216;6.778;2023-06-14T02:16:42;6.97;;;5.70;;
13753;SDS011;6948;51.216;6.778;2023-06-14T02:19:14;8.20;;;5.13;;
13753;SDS011;6948;51.216;6.778;2023-06-14T02:21:40;6.63;;;5.10;;
13753;SDS011;6948;51.216;6.778;2023-06-14T02:24:06;11.13;;;5.33;;
13753;SDS011;6948;51.216;6.778;2023-06-14T02:26:32;5.60;;;5.00;;
13753;SDS011;6948;51.216;6.778;2023-06-14T02:28:59;6.30;;;4.90;;
13753;SDS011;6948;51.216;6.778;2023-06-14T02:31:25;10.33;;;5.37;;
13753;SDS011;6948;51.216;6.778;2023-06-14T02:33:52;6.50;;;5.00;;
13753;SDS011;6948;51.216;6.778;2023-06-14T02:36:18;5.80;;;5.20;;
13753;SDS011;6948;51.216;6.778;2023-06-14T02:38:45;6.40;;;5.23;;
13753;SDS011;6948;51.216;6.778;2023-06-14T02:41:11;6.47;;;5.30;;
13753;SDS011;6948;51.216;6.778;2023-06-14T02:43:37;7.63;;;5.20;;
13753;SDS011;6948;51.216;6.778;2023-06-14T02:46:04;7.43;;;5.10;;
13753;SDS011;6948;51.216;6.778;2023-06-14T02:48:30;6.43;;;5.47;;
13753;SDS011;6948;51.216;6.778;2023-06-14T02:50:56;7.17;;;5.03;;
13753;SDS011;6948;51.216;6.778;2023-06-14T02:53:22;6.73;;;4.97;;
13753;SDS011;6948;51.216;6.778;2023-06-14T02:55:48;6.63;;;5.10;;
13753;SDS011;6948;51.216;6.778;2023-06-14T02:58:14;7.27;;;4.80;;
13753;SDS011;6948;51.216;6.778;2023-06-14T03:00:41;7.27;;;5.27;;
13753;SDS011;6948;51.216;6.778;2023-06-14T03:03:07;5.87;;;4.70;;
13753;SDS011;6948;51.216;6.778;2023-06-14T03:05:40;8.23;;;5.20;;
13753;SDS011;6948;51.216;6.778;2023-06-14T03:08:11;7.80;;;5.00;;
13753;SDS011;6948;51.216;6.778;2023-06-14T03:10:42;6.33;;;5.00;;
13753;SDS011;6948;51.216;6.778;2023-06-14T03:13:08;7.60;;;5.10;;
13753;SDS011;6948;51.216;6.778;2023-06-14T03:15:36;6.33;;;5.00;;
13753;SDS011;6948;51.216;6.778;2023-06-14T03:18:03;5.70;;;4.90;;
13753;SDS011;6948;51.216;6.778;2023-06-14T03:20:29;7.50;;;5.20;;
13753;SDS011;6948;51.216;6.778;2023-06-14T03:22:58;8.67;;;4.90;;
13753;SDS011;6948;51.216;6.778;2023-06-14T03:25:24;6.77;;;4.77;;
13753;SDS011;6948;51.216;6.778;2023-06-14T03:27:51;10.63;;;5.10;;
13753;SDS011;6948;51.216;6.778;2023-06-14T03:30:17;6.50;;;5.00;;
13753;SDS011;6948;51.216;6.778;2023-06-14T03:32:43;9.57;;;4.90;;
13753;SDS011;6948;51.216;6.778;2023-06-14T03:35:09;10.77;;;5.50;;
13753;SDS011;6948;51.216;6.778;2023-06-14T03:37:41;8.00;;;4.80;;
13753;SDS011;6948;51.216;6.778;2023-06-14T03:40:07;5.83;;;4.30;;
13753;SDS011;6948;51.216;6.778;2023-06-14T03:42:34;9.23;;;5.17;;
13753;SDS011;6948;51.216;6.778;2023-06-14T03:45:00;6.50;;;4.60;;
13753;SDS011;6948;51.216;6.778;2023-06-14T03:47:26;5.67;;;5.03;;
13753;SDS011;6948;51.216;6.778;2023-06-14T03:49:52;5.97;;;4.77;;
13753;SDS011;6948;51.216;6.778;2023-06-14T03:52:18;6.13;;;4.73;;
13753;SDS011;6948;51.216;6.778;2023-06-14T03:54:44;9.03;;;4.90;;
13753;SDS011;6948;51.216;6.778;2023-06-14T03:57:11;6.27;;;5.07;;
13753;SDS011;6948;51.216;6.778;2023-06-14T03:59:37;7.60;;;5.17;;
13753;SDS011;6948;51.216;6.778;2023-06-14T04:02:03;6.83;;;4.60;;
13753;SDS011;6948;51.216;6.778;2023-06-14T04:04:29;8.00;;;5.03;;
13753;SDS011;6948;51.216;6.778;2023-06-14T04:06:56;7.33;;;4.83;;
13753;SDS011;6948;51.216;6.778;2023-06-14T04:09:24;7.83;;;4.77;;
13753;SDS011;6948;51.216;6.778;2023-06-14T04:11:51;9.17;;;5.53;;
13753;SDS011;6948;51.216;6.778;2023-06-14T04:14:18;6.87;;;4.70;;
13753;SDS011;6948;51.216;6.778;2023-06-14T04:16:44;6.17;;;4.50;;
13753;SDS011;6948;51.216;6.778;2023-06-14T04:19:10;6.50;;;4.83;;
13753;SDS011;6948;51.216;6.778;2023-06-14T04:21:36;8.80;;;5.00;;
13753;SDS011;6948;51.216;6.778;2023-06-14T04:24:03;4.83;;;4.30;;
13753;SDS011;6948;51.216;6.778;2023-06-14T04:26:29;8.30;;;4.77;;
13753;SDS011;6948;51.216;6.778;2023-06-14T04:28:58;8.83;;;4.70;;
13753;SDS011;6948;51.216;6.778;2023-06-14T04:31:27;5.57;;;4.93;;
13753;SDS011;6948;51.216;6.778;2023-06-14T04:33:54;9.20;;;4.93;;
13753;SDS011;6948;51.216;6.778;2023-06-14T04:36:20;8.70;;;5.17;;
13753;SDS011;6948;51.216;6.778;2023-06-14T04:38:50;6.97;;;4.93;;
13753;SDS011;6948;51.216;6.778;2023-06-14T04:41:19;6.97;;;5.03;;
13753;SDS011;6948;51.216;6.778;2023-06-14T04:43:45;8.23;;;4.80;;
13753;SDS011;6948;51.216;6.778;2023-06-14T04:46:13;7.07;;;4.93;;
13753;SDS011;6948;51.216;6.778;2023-06-14T04:48:40;6.93;;;4.87;;
13753;SDS011;6948;51.216;6.778;2023-06-14T04:51:08;5.77;;;4.93;;
13753;SDS011;6948;51.216;6.778;2023-06-14T04:53:34;7.97;;;4.57;;
13753;SDS011;6948;51.216;6.778;2023-06-14T04:56:00;12.03;;;4.70;;
13753;SDS011;6948;51.216;6.778;2023-06-14T04:58:26;7.00;;;4.53;;
13753;SDS011;6948;51.216;6.778;2023-06-14T05:00:53;6.90;;;4.40;;
13753;SDS011;6948;51.216;6.778;2023-06-14T05:03:21;7.97;;;4.87;;
13753;SDS011;6948;51.216;6.778;2023-06-14T05:05:48;6.97;;;4.97;;
13753;SDS011;6948;51.216;6.778;2023-06-14T05:08:15;5.10;;;4.60;;
13753;SDS011;6948;51.216;6.778;2023-06-14T05:10:41;9.67;;;4.47;;
13753;SDS011;6948;51.216;6.778;2023-06-14T05:13:07;8.40;;;4.47;;
13753;SDS011;6948;51.216;6.778;2023-06-14T05:15:35;8.07;;;4.40;;
13753;SDS011;6948;51.216;6.778;2023-06-14T05:18:01;8.40;;;4.33;;
13753;SDS011;6948;51.216;6.778;2023-06-14T05:20:27;6.50;;;4.47;;
13753;SDS011;6948;51.216;6.778;2023-06-14T05:22:54;8.50;;;4.57;;
13753;SDS011;6948;51.216;6.778;2023-06-14T05:25:21;8.37;;;4.27;;
13753;SDS011;6948;51.216;6.778;2023-06-14T05:27:47;9.47;;;4.70;;
13753;SDS011;6948;51.216;6.778;2023-06-14T05:30:14;7.23;;;4.40;;
13753;SDS011;6948;51.216;6.778;2023-06-14T05:32:41;7.03;;;4.27;;
13753;SDS011;6948;51.216;6.778;2023-06-14T05:35:07;6.87;;;4.40;;
13753;SDS011;6948;51.216;6.778;2023-06-14T05:37:33;7.17;;;4.70;;
13753;SDS011;6948;51.216;6.778;2023-06-14T05:39:59;9.10;;;4.87;;
13753;SDS011;6948;51.216;6.778;2023-06-14T05:42:25;8.53;;;4.43;;
13753;SDS011;6948;51.216;6.778;2023-06-14T05:44:51;9.03;;;4.47;;
13753;SDS011;6948;51.216;6.778;2023-06-14T05:47:17;11.80;;;4.80;;
13753;SDS011;6948;51.216;6.778;2023-06-14T05:49:43;10.03;;;4.87;;
13753;SDS011;6948;51.216;6.778;2023-06-14T05:52:09;7.10;;;4.33;;
13753;SDS011;6948;51.216;6.778;2023-06-14T05:54:36;7.90;;;4.47;;
13753;SDS011;6948;51.216;6.778;2023-06-14T05:57:02;9.40;;;4.30;;
13753;SDS011;6948;51.216;6.778;2023-06-14T05:59:30;9.10;;;4.67;;
13753;SDS011;6948;51.216;6.778;2023-06-14T06:01:56;9.33;;;5.03;;
13753;SDS011;6948;51.216;6.778;2023-06-14T06:04:22;9.67;;;4.63;;
13753;SDS011;6948;51.216;6.778;2023-06-14T06:06:49;6.10;;;4.43;;
13753;SDS011;6948;51.216;6.778;2023-06-14T06:09:15;10.00;;;4.60;;
13753;SDS011;6948;51.216;6.778;2023-06-14T06:11:41;9.17;;;4.53;;
13753;SDS011;6948;51.216;6.778;2023-06-14T06:14:07;7.77;;;4.57;;
13753;SDS011;6948;51.216;6.778;2023-06-14T06:16:33;9.70;;;4.30;;
13753;SDS011;6948;51.216;6.778;2023-06-14T06:19:00;9.73;;;4.37;;
13753;SDS011;6948;51.216;6.778;2023-06-14T06:21:26;6.63;;;4.40;;
13753;SDS011;6948;51.216;6.778;2023-06-14T06:23:52;9.07;;;4.73;;
13753;SDS011;6948;51.216;6.778;2023-06-14T06:26:19;5.83;;;4.10;;
13753;SDS011;6948;51.216;6.778;2023-06-14T06:28:45;7.93;;;4.47;;
13753;SDS011;6948;51.216;6.778;2023-06-14T06:31:11;11.73;;;4.40;;
13753;SDS011;6948;51.216;6.778;2023-06-14T06:33:38;6.33;;;4.03;;
13753;SDS011;6948;51.216;6.778;2023-06-14T06:36:04;5.37;;;4.00;;
13753;SDS011;6948;51.216;6.778;2023-06-14T06:38:30;7.30;;;3.93;;
13753;SDS011;6948;51.216;6.778;2023-06-14T06:40:56;11.40;;;4.20;;
13753;SDS011;6948;51.216;6.778;2023-06-14T06:43:23;6.83;;;3.50;;
13753;SDS011;6948;51.216;6.778;2023-06-14T06:45:49;9.00;;;3.60;;
13753;SDS011;6948;51.216;6.778;2023-06-14T06:48:15;7.17;;;3.57;;
13753;SDS011;6948;51.216;6.778;2023-06-14T06:50:41;7.13;;;3.47;;
13753;SDS011;6948;51.216;6.778;2023-06-14T06:53:07;7.87;;;3.50;;
13753;SDS011;6948;51.216;6.778;2023-06-14T06:55:33;11.07;;;3.33;;
13753;SDS011;6948;51.216;6.778;2023-06-14T06:58:00;6.10;;;3.23;;
13753;SDS011;6948;51.216;6.778;2023-06-14T07:00:26;7.83;;;2.80;;
13753;SDS011;6948;51.216;6.778;2023-06-14T07:02:52;5.97;;;3.07;;
13753;SDS011;6948;51.216;6.778;2023-06-14T07:05:20;5.70;;;2.57;;
13753;SDS011;6948;51.216;6.778;2023-06-14T07:07:46;5.63;;;2.60;;
13753;SDS011;6948;51.216;6.778;2023-06-14T07:10:12;5.83;;;2.60;;
13753;SDS011;6948;51.216;6.778;2023-06-14T07:12:38;9.47;;;2.90;;
13753;SDS011;6948;51.216;6.778;2023-06-14T07:15:06;4.93;;;2.60;;
13753;SDS011;6948;51.216;6.778;2023-06-14T07:17:33;7.07;;;3.03;;
13753;SDS011;6948;51.216;6.778;2023-06-14T07:20:01;5.37;;;3.00;;
13753;SDS011;6948;51.216;6.778;2023-06-14T07:22:38;9.17;;;3.00;;
13753;SDS011;6948;51.216;6.778;2023-06-14T07:25:05;3.37;;;2.73;;
13753;SDS011;6948;51.216;6.778;2023-06-14T07:27:32;7.40;;;2.30;;
13753;SDS011;6948;51.216;6.778;2023-06-14T07:29:57;3.83;;;2.13;;
13753;SDS011;6948;51.216;6.778;2023-06-14T07:32:24;5.33;;;2.50;;
13753;SDS011;6948;51.216;6.778;2023-06-14T07:34:50;4.70;;;2.20;;
13753;SDS011;6948;51.216;6.778;2023-06-14T07:37:16;4.73;;;2.43;;
13753;SDS011;6948;51.216;6.778;2023-06-14T07:39:42;4.10;;;2.40;;
13753;SDS011;6948;51.216;6.778;2023-06-14T07:42:07;5.17;;;1.97;;
13753;SDS011;6948;51.216;6.778;2023-06-14T07:44:34;3.37;;;2.10;;
13753;SDS011;6948;51.216;6.778;2023-06-14T07:47:00;4.43;;;2.37;;
13753;SDS011;6948;51.216;6.778;2023-06-14T07:49:26;4.47;;;2.30;;
13753;SDS011;6948;51.216;6.778;2023-06-14T07:51:52;5.40;;;2.20;;
13753;SDS011;6948;51.216;6.778;2023-06-14T07:54:18;3.13;;;2.30;;
13753;SDS011;6948;51.216;6.778;2023-06-14T07:56:49;2.35;;;2.15;;
13753;SDS011;6948;51.216;6.778;2023-06-14T07:59:15;3.70;;;2.20;;
13753;SDS011;6948;51.216;6.778;2023-06-14T08:01:42;2.30;;;1.90;;
13753;SDS011;6948;51.216;6.778;2023-06-14T08:04:12;3.43;;;2.10;;
13753;SDS011;6948;51.216;6.778;2023-06-14T08:06:38;2.37;;;2.00;;
13753;SDS011;6948;51.216;6.778;2023-06-14T08:09:04;3.80;;;2.33;;
13753;SDS011;6948;51.216;6.778;2023-06-14T08:11:30;3.20;;;2.10;;
13753;SDS011;6948;51.216;6.778;2023-06-14T08:13:56;8.57;;;2.53;;
13753;SDS011;6948;51.216;6.778;2023-06-14T08:16:22;2.53;;;2.00;;
13753;SDS011;6948;51.216;6.778;2023-06-14T08:18:49;2.97;;;2.03;;
13753;SDS011;6948;51.216;6.778;2023-06-14T08:21:15;3.97;;;2.10;;
13753;SDS011;6948;51.216;6.778;2023-06-14T08:23:41;2.77;;;2.20;;
13753;SDS011;6948;51.216;6.778;2023-06-14T08:26:08;4.20;;;2.30;;
13753;SDS011;6948;51.216;6.778;2023-06-14T08:28:34;3.45;;;1.80;;
13753;SDS011;6948;51.216;6.778;2023-06-14T08:31:00;2.72;;;2.08;;
13753;SDS011;6948;51.216;6.778;2023-06-14T08:33:26;5.10;;;2.20;;
13753;SDS011;6948;51.216;6.778;2023-06-14T08:35:52;4.22;;;2.30;;
13753;SDS011;6948;51.216;6.778;2023-06-14T08:38:18;5.17;;;2.00;;
13753;SDS011;6948;51.216;6.778;2023-06-14T08:40:45;3.80;;;2.13;;
13753;SDS011;6948;51.216;6.778;2023-06-14T08:43:13;7.80;;;2.25;;
13753;SDS011;6948;51.216;6.778;2023-06-14T08:45:40;4.00;;;2.17;;
13753;SDS011;6948;51.216;6.778;2023-06-14T08:48:07;3.37;;;1.90;;
13753;SDS011;6948;51.216;6.778;2023-06-14T08:50:34;3.93;;;1.80;;
13753;SDS011;6948;51.216;6.778;2023-06-14T08:53:02;5.37;;;2.07;;
13753;SDS011;6948;51.216;6.778;2023-06-14T08:55:29;5.07;;;2.10;;
13753;SDS011;6948;51.216;6.778;2023-06-14T08:57:55;3.28;;;2.30;;
13753;SDS011;6948;51.216;6.778;2023-06-14T09:00:23;3.90;;;2.30;;
13753;SDS011;6948;51.216;6.778;2023-06-14T09:02:50;4.57;;;2.20;;
13753;SDS011;6948;51.216;6.778;2023-06-14T09:05:20;3.77;;;2.40;;
13753;SDS011;6948;51.216;6.778;2023-06-14T09:07:48;2.60;;;1.90;;
13753;SDS011;6948;51.216;6.778;2023-06-14T09:10:18;5.03;;;1.90;;
13753;SDS011;6948;51.216;6.778;2023-06-14T09:13:15;5.53;;;1.98;;
13753;SDS011;6948;51.216;6.778;2023-06-14T09:15:47;4.03;;;2.00;;
13753;SDS011;6948;51.216;6.778;2023-06-14T09:18:44;5.60;;;2.10;;
13753;SDS011;6948;51.216;6.778;2023-06-14T09:21:15;2.75;;;2.15;;
13753;SDS011;6948;51.216;6.778;2023-06-14T09:23:47;4.17;;;2.17;;
13753;SDS011;6948;51.216;6.778;2023-06-14T09:26:19;3.77;;;2.00;;
13753;SDS011;6948;51.216;6.778;2023-06-14T09:28:46;4.23;;;2.10;;
13753;SDS011;6948;51.216;6.778;2023-06-14T09:31:13;4.83;;;2.10;;
13753;SDS011;6948;51.216;6.778;2023-06-14T09:33:42;3.50;;;2.10;;
13753;SDS011;6948;51.216;6.778;2023-06-14T09:36:17;2.93;;;1.70;;
13753;SDS011;6948;51.216;6.778;2023-06-14T09:38:51;5.07;;;1.97;;
13753;SDS011;6948;51.216;6.778;2023-06-14T09:41:17;2.50;;;2.10;;
13753;SDS011;6948;51.216;6.778;2023-06-14T09:43:49;4.33;;;2.20;;
13753;SDS011;6948;51.216;6.778;2023-06-14T09:46:19;3.17;;;2.40;;
13753;SDS011;6948;51.216;6.778;2023-06-14T09:48:45;4.17;;;2.10;;
13753;SDS011;6948;51.216;6.778;2023-06-14T09:51:12;4.93;;;2.17;;
13753;SDS011;6948;51.216;6.778;2023-06-14T09:53:39;3.73;;;1.90;;
13753;SDS011;6948;51.216;6.778;2023-06-14T09:56:06;6.10;;;2.10;;
13753;SDS011;6948;51.216;6.778;2023-06-14T09:58:33;2.83;;;1.97;;
13753;SDS011;6948;51.216;6.778;2023-06-14T10:01:00;5.47;;;2.27;;
13753;SDS011;6948;51.216;6.778;2023-06-14T10:03:28;7.73;;;2.23;;
13753;SDS011;6948;51.216;6.778;2023-06-14T10:05:55;2.30;;;1.80;;
13753;SDS011;6948;51.216;6.778;2023-06-14T10:08:23;4.90;;;2.23;;
13753;SDS011;6948;51.216;6.778;2023-06-14T10:10:51;4.20;;;2.20;;
13753;SDS011;6948;51.216;6.778;2023-06-14T10:13:17;3.60;;;2.07;;
13753;SDS011;6948;51.216;6.778;2023-06-14T10:15:56;5.20;;;2.57;;
13753;SDS011;6948;51.216;6.778;2023-06-14T10:21:33;2.33;;;2.13;;
13753;SDS011;6948;51.216;6.778;2023-06-14T10:24:03;3.03;;;1.80;;
13753;SDS011;6948;51.216;6.778;2023-06-14T10:26:31;4.53;;;2.10;;
13753;SDS011;6948;51.216;6.778;2023-06-14T10:28:57;2.33;;;2.10;;
13753;SDS011;6948;51.216;6.778;2023-06-14T10:31:43;3.30;;;2.50;;
13753;SDS011;6948;51.216;6.778;2023-06-14T10:34:10;3.37;;;2.03;;
13753;SDS011;6948;51.216;6.778;2023-06-14T10:36:37;3.67;;;1.97;;
13753;SDS011;6948;51.216;6.778;2023-06-14T10:39:04;3.30;;;1.97;;
13753;SDS011;6948;51.216;6.778;2023-06-14T10:41:31;4.27;;;1.97;;
13753;SDS011;6948;51.216;6.778;2023-06-14T10:46:49;5.70;;;1.90;;
13753;SDS011;6948;51.216;6.778;2023-06-14T10:49:18;4.10;;;1.90;;
13753;SDS011;6948;51.216;6.778;2023-06-14T10:51:45;3.23;;;1.83;;
13753;SDS011;6948;51.216;6.778;2023-06-14T10:54:12;2.47;;;1.83;;
13753;SDS011;6948;51.216;6.778;2023-06-14T10:56:39;2.97;;;1.90;;
13753;SDS011;6948;51.216;6.778;2023-06-14T10:59:11;3.20;;;2.10;;
13753;SDS011;6948;51.216;6.778;2023-06-14T11:01:40;4.43;;;2.33;;
13753;SDS011;6948;51.216;6.778;2023-06-14T11:04:08;3.10;;;1.87;;
13753;SDS011;6948;51.216;6.778;2023-06-14T11:06:41;5.30;;;2.20;;
13753;SDS011;6948;51.216;6.778;2023-06-14T11:09:32;5.13;;;2.20;;
13753;SDS011;6948;51.216;6.778;2023-06-14T11:11:59;4.90;;;2.20;;
13753;SDS011;6948;51.216;6.778;2023-06-14T11:14:36;2.30;;;1.70;;
13753;SDS011;6948;51.216;6.778;2023-06-14T11:17:02;4.10;;;2.22;;
13753;SDS011;6948;51.216;6.778;2023-06-14T11:19:28;4.47;;;2.10;;
13753;SDS011;6948;51.216;6.778;2023-06-14T11:21:55;4.97;;;2.33;;
13753;SDS011;6948;51.216;6.778;2023-06-14T11:24:21;5.30;;;2.50;;
13753;SDS011;6948;51.216;6.778;2023-06-14T11:26:47;5.93;;;4.70;;
13753;SDS011;6948;51.216;6.778;2023-06-14T11:29:14;3.43;;;2.20;;
13753;SDS011;6948;51.216;6.778;2023-06-14T11:31:44;4.00;;;2.30;;
13753;SDS011;6948;51.216;6.778;2023-06-14T11:34:11;5.10;;;2.03;;
13753;SDS011;6948;51.216;6.778;2023-06-14T11:36:38;2.67;;;2.13;;
13753;SDS011;6948;51.216;6.778;2023-06-14T11:39:05;3.53;;;2.17;;
13753;SDS011;6948;51.216;6.778;2023-06-14T11:41:33;3.22;;;2.05;;
13753;SDS011;6948;51.216;6.778;2023-06-14T11:44:00;3.90;;;2.00;;
13753;SDS011;6948;51.216;6.778;2023-06-14T11:46:26;4.47;;;1.95;;
13753;SDS011;6948;51.216;6.778;2023-06-14T11:48:52;3.22;;;2.00;;
13753;SDS011;6948;51.216;6.778;2023-06-14T11:51:18;4.07;;;2.10;;
13753;SDS011;6948;51.216;6.778;2023-06-14T11:53:45;3.70;;;1.90;;
13753;SDS011;6948;51.216;6.778;2023-06-14T11:56:11;4.97;;;1.75;;
13753;SDS011;6948;51.216;6.778;2023-06-14T11:58:37;4.10;;;1.92;;
13753;SDS011;6948;51.216;6.778;2023-06-14T12:01:04;4.50;;;2.10;;
13753;SDS011;6948;51.216;6.778;2023-06-14T12:03:30;3.25;;;1.90;;
13753;SDS011;6948;51.216;6.778;2023-06-14T12:08:42;4.43;;;2.03;;
13753;SDS011;6948;51.216;6.778;2023-06-14T12:11:10;2.97;;;1.80;;
13753;SDS011;6948;51.216;6.778;2023-06-14T12:13:38;5.25;;;1.92;;
13753;SDS011;6948;51.216;6.778;2023-06-14T12:16:06;3.70;;;1.77;;
13753;SDS011;6948;51.216;6.778;2023-06-14T12:18:33;2.42;;;1.70;;
13753;SDS011;6948;51.216;6.778;2023-06-14T12:20:59;4.28;;;1.67;;
13753;SDS011;6948;51.216;6.778;2023-06-14T12:23:38;3.78;;;1.60;;
13753;SDS011;6948;51.216;6.778;2023-06-14T12:26:04;3.30;;;2.10;;
13753;SDS011;6948;51.216;6.778;2023-06-14T12:28:31;3.60;;;1.80;;
13753;SDS011;6948;51.216;6.778;2023-06-14T12:30:57;3.95;;;2.15;;
13753;SDS011;6948;51.216;6.778;2023-06-14T12:33:24;4.38;;;1.83;;
13753;SDS011;6948;51.216;6.778;2023-06-14T12:35:50;2.28;;;1.77;;
13753;SDS011;6948;51.216;6.778;2023-06-14T12:38:17;5.47;;;1.90;;
13753;SDS011;6948;51.216;6.778;2023-06-14T12:40:43;4.25;;;1.70;;
13753;SDS011;6948;51.216;6.778;2023-06-14T12:43:09;6.57;;;1.83;;
13753;SDS011;6948;51.216;6.778;2023-06-14T12:45:35;2.25;;;1.70;;
13753;SDS011;6948;51.216;6.778;2023-06-14T12:48:01;4.55;;;1.73;;
13753;SDS011;6948;51.216;6.778;2023-06-14T12:50:27;3.92;;;1.75;;
13753;SDS011;6948;51.216;6.778;2023-06-14T12:52:53;3.90;;;1.80;;
13753;SDS011;6948;51.216;6.778;2023-06-14T12:55:19;4.10;;;1.70;;
13753;SDS011;6948;51.216;6.778;2023-06-14T12:57:45;1.75;;;1.60;;
13753;SDS011;6948;51.216;6.778;2023-06-14T13:00:14;5.47;;;1.80;;
13753;SDS011;6948;51.216;6.778;2023-06-14T13:02:40;1.70;;;1.48;;
13753;SDS011;6948;51.216;6.778;2023-06-14T13:05:06;3.70;;;1.55;;
13753;SDS011;6948;51.216;6.778;2023-06-14T13:07:32;5.38;;;1.80;;
13753;SDS011;6948;51.216;6.778;2023-06-14T13:09:58;2.58;;;1.67;;
13753;SDS011;6948;51.216;6.778;2023-06-14T13:12:24;4.05;;;1.60;;
13753;SDS011;6948;51.216;6.778;2023-06-14T13:14:50;3.65;;;1.73;;
13753;SDS011;6948;51.216;6.778;2023-06-14T13:17:16;3.45;;;1.90;;
13753;SDS011;6948;51.216;6.778;2023-06-14T13:19:42;2.92;;;1.80;;
13753;SDS011;6948;51.216;6.778;2023-06-14T13:22:08;3.70;;;1.92;;
13753;SDS011;6948;51.216;6.778;2023-06-14T13:24:34;2.50;;;1.60;;
13753;SDS011;6948;51.216;6.778;2023-06-14T13:27:00;3.63;;;2.15;;
13753;SDS011;6948;51.216;6.778;2023-06-14T13:29:27;3.90;;;1.85;;
13753;SDS011;6948;51.216;6.778;2023-06-14T13:31:53;5.00;;;1.83;;
13753;SDS011;6948;51.216;6.778;2023-06-14T13:34:20;3.85;;;1.90;;
13753;SDS011;6948;51.216;6.778;2023-06-14T13:36:46;6.95;;;1.80;;
13753;SDS011;6948;51.216;6.778;2023-06-14T13:39:12;2.28;;;1.90;;
13753;SDS011;6948;51.216;6.778;2023-06-14T13:41:38;5.03;;;2.15;;
13753;SDS011;6948;51.216;6.778;2023-06-14T13:44:04;5.53;;;1.95;;
13753;SDS011;6948;51.216;6.778;2023-06-14T13:46:30;2.42;;;1.90;;
13753;SDS011;6948;51.216;6.778;2023-06-14T13:48:56;3.35;;;2.10;;
13753;SDS011;6948;51.216;6.778;2023-06-14T13:51:23;6.78;;;1.98;;
13753;SDS011;6948;51.216;6.778;2023-06-14T13:53:52;3.70;;;1.95;;
13753;SDS011;6948;51.216;6.778;2023-06-14T13:56:18;3.38;;;1.70;;
13753;SDS011;6948;51.216;6.778;2023-06-14T13:58:44;5.38;;;2.25;;
13753;SDS011;6948;51.216;6.778;2023-06-14T14:01:11;2.97;;;2.10;;
13753;SDS011;6948;51.216;6.778;2023-06-14T14:03:37;3.22;;;2.10;;
13753;SDS011;6948;51.216;6.778;2023-06-14T14:06:03;6.50;;;2.22;;
13753;SDS011;6948;51.216;6.778;2023-06-14T14:08:30;3.97;;;2.30;;
13753;SDS011;6948;51.216;6.778;2023-06-14T14:10:57;4.63;;;2.08;;
13753;SDS011;6948;51.216;6.778;2023-06-14T14:13:23;6.65;;;2.10;;
13753;SDS011;6948;51.216;6.778;2023-06-14T14:15:49;3.13;;;2.63;;
13753;SDS011;6948;51.216;6.778;2023-06-14T14:18:16;4.22;;;2.10;;
13753;SDS011;6948;51.216;6.778;2023-06-14T14:20:45;5.60;;;2.00;;
13753;SDS011;6948;51.216;6.778;2023-06-14T14:23:22;4.65;;;2.22;;
13753;SDS011;6948;51.216;6.778;2023-06-14T14:25:54;3.55;;;2.10;;
13753;SDS011;6948;51.216;6.778;2023-06-14T14:28:41;3.35;;;2.17;;
13753;SDS011;6948;51.216;6.778;2023-06-14T14:31:10;2.20;;;1.92;;
13753;SDS011;6948;51.216;6.778;2023-06-14T14:33:36;2.95;;;2.15;;
13753;SDS011;6948;51.216;6.778;2023-06-14T14:36:02;2.67;;;2.30;;
13753;SDS011;6948;51.216;6.778;2023-06-14T14:38:29;3.20;;;2.33;;
13753;SDS011;6948;51.216;6.778;2023-06-14T14:40:55;6.20;;;2.08;;
13753;SDS011;6948;51.216;6.778;2023-06-14T14:43:21;4.00;;;2.10;;
13753;SDS011;6948;51.216;6.778;2023-06-14T14:45:47;3.97;;;2.30;;
13753;SDS011;6948;51.216;6.778;2023-06-14T14:48:13;3.63;;;1.90;;
13753;SDS011;6948;51.216;6.778;2023-06-14T14:50:39;2.75;;;1.98;;
13753;SDS011;6948;51.216;6.778;2023-06-14T14:53:05;3.65;;;2.00;;
13753;SDS011;6948;51.216;6.778;2023-06-14T14:55:31;2.83;;;2.05;;
13753;SDS011;6948;51.216;6.778;2023-06-14T14:57:59;3.65;;;2.03;;
13753;SDS011;6948;51.216;6.778;2023-06-14T15:00:25;8.07;;;2.05;;
13753;SDS011;6948;51.216;6.778;2023-06-14T15:02:51;6.65;;;3.38;;
13753;SDS011;6948;51.216;6.778;2023-06-14T15:05:18;5.40;;;2.60;;
13753;SDS011;6948;51.216;6.778;2023-06-14T15:07:44;5.20;;;2.45;;
13753;SDS011;6948;51.216;6.778;2023-06-14T15:10:10;3.55;;;2.50;;
13753;SDS011;6948;51.216;6.778;2023-06-14T15:12:37;5.07;;;2.08;;